sensor_id;sensor_type;location;lat;lon;timestamp;P1;durP1;ratioP1;P2;durP2;ratioP2
48623;SDS011;34422;45.802;16.114;2023-09-18T00:00:53;16.08;;;12.88;;
48623;SDS011;34422;45.802;16.114;2023-09-18T00:03:20;16.02;;;11.98;;
48623;SDS011;34422;45.802;16.114;2023-09-18T00:08:18;16.88;;;13.32;;
48623;SDS011;34422;45.802;16.114;2023-09-18T00:13:16;21.25;;;12.85;;
48623;SDS011;34422;45.802;16.114;2023-09-18T00:15:43;14.63;;;11.75;;
48623;SDS011;34422;45.802;16.114;2023-09-18T00:18:13;15.73;;;12.20;;
48623;SDS011;34422;45.802;16.114;2023-09-18T00:20:41;17.27;;;11.98;;
48623;SDS011;34422;45.802;16.114;2023-09-18T00:23:08;17.73;;;13.18;;
48623;SDS011;34422;45.802;16.114;2023-09-18T00:25:35;16.15;;;12.63;;
48623;SDS011;34422;45.802;16.114;2023-09-18T00:28:03;15.18;;;12.05;;
48623;SDS011;34422;45.802;16.114;2023-09-18T00:30:30;15.55;;;12.55;;
48623;SDS011;34422;45.802;16.114;2023-09-18T00:32:58;18.15;;;12.70;;
48623;SDS011;34422;45.802;16.114;2023-09-18T00:35:25;16.70;;;12.07;;
48623;SDS011;34422;45.802;16.114;2023-09-18T00:37:52;15.68;;;12.30;;
48623;SDS011;34422;45.802;16.114;2023-09-18T00:40:19;15.32;;;11.93;;
48623;SDS011;34422;45.802;16.114;2023-09-18T00:42:46;16.42;;;11.45;;
48623;SDS011;34422;45.802;16.114;2023-09-18T00:45:14;13.80;;;11.27;;
48623;SDS011;34422;45.802;16.114;2023-09-18T00:47:41;18.45;;;12.48;;
48623;SDS011;34422;45.802;16.114;2023-09-18T00:50:08;16.23;;;13.05;;
48623;SDS011;34422;45.802;16.114;2023-09-18T00:52:38;17.90;;;11.85;;
48623;SDS011;34422;45.802;16.114;2023-09-18T00:55:07;13.93;;;10.80;;
48623;SDS011;34422;45.802;16.114;2023-09-18T00:57:34;21.65;;;13.90;;
48623;SDS011;34422;45.802;16.114;2023-09-18T01:00:02;15.02;;;11.57;;
48623;SDS011;34422;45.802;16.114;2023-09-18T01:02:31;15.02;;;11.50;;
48623;SDS011;34422;45.802;16.114;2023-09-18T01:04:58;14.38;;;11.20;;
48623;SDS011;34422;45.802;16.114;2023-09-18T01:07:25;15.23;;;11.32;;
48623;SDS011;34422;45.802;16.114;2023-09-18T01:09:53;14.57;;;11.52;;
48623;SDS011;34422;45.802;16.114;2023-09-18T01:12:27;15.90;;;11.60;;
48623;SDS011;34422;45.802;16.114;2023-09-18T01:15:06;14.48;;;11.48;;
48623;SDS011;34422;45.802;16.114;2023-09-18T01:17:38;15.15;;;10.90;;
48623;SDS011;34422;45.802;16.114;2023-09-18T01:20:10;18.77;;;11.05;;
48623;SDS011;34422;45.802;16.114;2023-09-18T01:22:37;16.30;;;11.98;;
48623;SDS011;34422;45.802;16.114;2023-09-18T01:25:04;16.00;;;11.50;;
48623;SDS011;34422;45.802;16.114;2023-09-18T01:27:35;14.05;;;10.93;;
48623;SDS011;34422;45.802;16.114;2023-09-18T01:30:02;17.92;;;11.52;;
48623;SDS011;34422;45.802;16.114;2023-09-18T01:32:29;15.82;;;11.38;;
48623;SDS011;34422;45.802;16.114;2023-09-18T01:35:00;19.05;;;12.70;;
48623;SDS011;34422;45.802;16.114;2023-09-18T01:37:29;18.05;;;11.07;;
48623;SDS011;34422;45.802;16.114;2023-09-18T01:39:57;15.40;;;11.77;;
48623;SDS011;34422;45.802;16.114;2023-09-18T01:42:26;16.27;;;10.70;;
48623;SDS011;34422;45.802;16.114;2023-09-18T01:44:53;15.25;;;11.40;;
48623;SDS011;34422;45.802;16.114;2023-09-18T01:47:21;15.73;;;11.75;;
48623;SDS011;34422;45.802;16.114;2023-09-18T01:49:53;14.68;;;11.48;;
48623;SDS011;34422;45.802;16.114;2023-09-18T01:52:20;14.88;;;11.68;;
48623;SDS011;34422;45.802;16.114;2023-09-18T01:54:46;14.80;;;11.55;;
48623;SDS011;34422;45.802;16.114;2023-09-18T01:57:14;15.32;;;11.88;;
48623;SDS011;34422;45.802;16.114;2023-09-18T01:59:40;18.98;;;11.18;;
48623;SDS011;34422;45.802;16.114;2023-09-18T02:02:07;15.25;;;11.27;;
48623;SDS011;34422;45.802;16.114;2023-09-18T02:04:36;18.35;;;12.35;;
48623;SDS011;34422;45.802;16.114;2023-09-18T02:07:03;13.68;;;11.35;;
48623;SDS011;34422;45.802;16.114;2023-09-18T02:09:30;17.77;;;11.68;;
48623;SDS011;34422;45.802;16.114;2023-09-18T02:11:56;16.02;;;11.98;;
48623;SDS011;34422;45.802;16.114;2023-09-18T02:14:23;16.60;;;11.73;;
48623;SDS011;34422;45.802;16.114;2023-09-18T02:16:50;16.52;;;11.80;;
48623;SDS011;34422;45.802;16.114;2023-09-18T02:19:18;14.43;;;11.70;;
48623;SDS011;34422;45.802;16.114;2023-09-18T02:21:46;17.23;;;12.63;;
48623;SDS011;34422;45.802;16.114;2023-09-18T02:24:13;15.07;;;11.50;;
48623;SDS011;34422;45.802;16.114;2023-09-18T02:26:40;15.30;;;12.10;;
48623;SDS011;34422;45.802;16.114;2023-09-18T02:29:08;13.50;;;11.32;;
48623;SDS011;34422;45.802;16.114;2023-09-18T02:31:40;15.20;;;11.40;;
48623;SDS011;34422;45.802;16.114;2023-09-18T02:34:07;16.25;;;11.98;;
48623;SDS011;34422;45.802;16.114;2023-09-18T02:36:35;17.60;;;12.63;;
48623;SDS011;34422;45.802;16.114;2023-09-18T02:39:03;14.90;;;12.20;;
48623;SDS011;34422;45.802;16.114;2023-09-18T02:44:00;17.40;;;11.73;;
48623;SDS011;34422;45.802;16.114;2023-09-18T02:46:27;21.13;;;13.32;;
48623;SDS011;34422;45.802;16.114;2023-09-18T02:48:53;15.40;;;12.85;;
48623;SDS011;34422;45.802;16.114;2023-09-18T02:51:21;15.20;;;11.95;;
48623;SDS011;34422;45.802;16.114;2023-09-18T02:53:48;15.43;;;12.10;;
48623;SDS011;34422;45.802;16.114;2023-09-18T02:56:15;16.52;;;12.50;;
48623;SDS011;34422;45.802;16.114;2023-09-18T02:58:42;17.25;;;12.07;;
48623;SDS011;34422;45.802;16.114;2023-09-18T03:01:09;17.30;;;12.20;;
48623;SDS011;34422;45.802;16.114;2023-09-18T03:03:36;24.55;;;14.85;;
48623;SDS011;34422;45.802;16.114;2023-09-18T03:06:03;20.13;;;13.68;;
48623;SDS011;34422;45.802;16.114;2023-09-18T03:08:31;21.20;;;14.55;;
48623;SDS011;34422;45.802;16.114;2023-09-18T03:10:58;19.33;;;13.43;;
48623;SDS011;34422;45.802;16.114;2023-09-18T03:13:26;21.92;;;14.80;;
48623;SDS011;34422;45.802;16.114;2023-09-18T03:15:56;19.70;;;14.90;;
48623;SDS011;34422;45.802;16.114;2023-09-18T03:18:23;21.15;;;14.90;;
48623;SDS011;34422;45.802;16.114;2023-09-18T03:20:49;20.67;;;14.60;;
48623;SDS011;34422;45.802;16.114;2023-09-18T03:23:16;18.85;;;14.40;;
48623;SDS011;34422;45.802;16.114;2023-09-18T03:25:43;21.67;;;15.18;;
48623;SDS011;34422;45.802;16.114;2023-09-18T03:28:10;18.35;;;14.65;;
48623;SDS011;34422;45.802;16.114;2023-09-18T03:30:37;24.75;;;16.60;;
48623;SDS011;34422;45.802;16.114;2023-09-18T03:33:04;21.92;;;16.23;;
48623;SDS011;34422;45.802;16.114;2023-09-18T03:35:31;32.60;;;15.85;;
48623;SDS011;34422;45.802;16.114;2023-09-18T03:37:58;19.20;;;14.75;;
48623;SDS011;34422;45.802;16.114;2023-09-18T03:40:25;21.85;;;14.85;;
48623;SDS011;34422;45.802;16.114;2023-09-18T03:42:52;31.90;;;17.25;;
48623;SDS011;34422;45.802;16.114;2023-09-18T03:45:19;23.05;;;15.75;;
48623;SDS011;34422;45.802;16.114;2023-09-18T03:47:46;24.52;;;15.90;;
48623;SDS011;34422;45.802;16.114;2023-09-18T03:50:14;22.55;;;16.40;;
48623;SDS011;34422;45.802;16.114;2023-09-18T03:52:41;48.40;;;18.77;;
48623;SDS011;34422;45.802;16.114;2023-09-18T03:55:07;26.80;;;17.38;;
48623;SDS011;34422;45.802;16.114;2023-09-18T03:57:34;97.38;;;23.15;;
48623;SDS011;34422;45.802;16.114;2023-09-18T04:00:04;45.03;;;18.70;;
48623;SDS011;34422;45.802;16.114;2023-09-18T04:02:32;26.67;;;16.67;;
48623;SDS011;34422;45.802;16.114;2023-09-18T04:04:59;20.35;;;16.55;;
48623;SDS011;34422;45.802;16.114;2023-09-18T04:07:26;65.43;;;20.20;;
48623;SDS011;34422;45.802;16.114;2023-09-18T04:09:52;26.80;;;17.25;;
48623;SDS011;34422;45.802;16.114;2023-09-18T04:12:19;27.13;;;17.77;;
48623;SDS011;34422;45.802;16.114;2023-09-18T04:14:46;35.63;;;18.15;;
48623;SDS011;34422;45.802;16.114;2023-09-18T04:17:13;30.50;;;17.20;;
48623;SDS011;34422;45.802;16.114;2023-09-18T04:19:40;32.70;;;18.33;;
48623;SDS011;34422;45.802;16.114;2023-09-18T04:22:06;31.70;;;17.10;;
48623;SDS011;34422;45.802;16.114;2023-09-18T04:24:34;29.08;;;16.73;;
48623;SDS011;34422;45.802;16.114;2023-09-18T04:27:01;32.25;;;16.05;;
48623;SDS011;34422;45.802;16.114;2023-09-18T04:29:28;44.03;;;19.00;;
48623;SDS011;34422;45.802;16.114;2023-09-18T04:31:54;30.25;;;18.05;;
48623;SDS011;34422;45.802;16.114;2023-09-18T04:34:21;21.38;;;15.88;;
48623;SDS011;34422;45.802;16.114;2023-09-18T04:36:48;15.88;;;13.73;;
48623;SDS011;34422;45.802;16.114;2023-09-18T04:39:15;20.13;;;15.55;;
48623;SDS011;34422;45.802;16.114;2023-09-18T04:41:42;19.10;;;15.88;;
48623;SDS011;34422;45.802;16.114;2023-09-18T04:44:09;20.23;;;14.95;;
48623;SDS011;34422;45.802;16.114;2023-09-18T04:46:39;32.50;;;16.27;;
48623;SDS011;34422;45.802;16.114;2023-09-18T04:49:08;19.65;;;15.57;;
48623;SDS011;34422;45.802;16.114;2023-09-18T04:51:37;21.63;;;16.00;;
48623;SDS011;34422;45.802;16.114;2023-09-18T04:54:05;19.15;;;15.15;;
48623;SDS011;34422;45.802;16.114;2023-09-18T04:56:33;46.67;;;18.90;;
48623;SDS011;34422;45.802;16.114;2023-09-18T04:59:00;92.40;;;19.50;;
48623;SDS011;34422;45.802;16.114;2023-09-18T05:01:28;55.47;;;16.13;;
48623;SDS011;34422;45.802;16.114;2023-09-18T05:03:56;31.05;;;16.58;;
48623;SDS011;34422;45.802;16.114;2023-09-18T05:06:23;27.58;;;17.08;;
48623;SDS011;34422;45.802;16.114;2023-09-18T05:08:49;34.75;;;17.52;;
48623;SDS011;34422;45.802;16.114;2023-09-18T05:11:18;27.98;;;16.42;;
48623;SDS011;34422;45.802;16.114;2023-09-18T05:13:45;88.65;;;20.13;;
48623;SDS011;34422;45.802;16.114;2023-09-18T05:16:12;23.80;;;16.27;;
48623;SDS011;34422;45.802;16.114;2023-09-18T05:18:39;30.05;;;16.25;;
48623;SDS011;34422;45.802;16.114;2023-09-18T05:21:08;24.38;;;15.90;;
48623;SDS011;34422;45.802;16.114;2023-09-18T05:23:36;56.40;;;18.13;;
48623;SDS011;34422;45.802;16.114;2023-09-18T05:26:03;42.38;;;16.15;;
48623;SDS011;34422;45.802;16.114;2023-09-18T05:28:29;24.05;;;16.80;;
48623;SDS011;34422;45.802;16.114;2023-09-18T05:30:56;47.15;;;17.73;;
48623;SDS011;34422;45.802;16.114;2023-09-18T05:33:23;33.35;;;18.92;;
48623;SDS011;34422;45.802;16.114;2023-09-18T05:35:50;24.15;;;16.45;;
48623;SDS011;34422;45.802;16.114;2023-09-18T05:38:17;27.15;;;15.93;;
48623;SDS011;34422;45.802;16.114;2023-09-18T05:40:44;18.45;;;13.98;;
48623;SDS011;34422;45.802;16.114;2023-09-18T05:43:11;20.00;;;13.00;;
48623;SDS011;34422;45.802;16.114;2023-09-18T05:45:38;48.00;;;16.25;;
48623;SDS011;34422;45.802;16.114;2023-09-18T05:48:05;19.38;;;13.63;;
48623;SDS011;34422;45.802;16.114;2023-09-18T05:50:33;19.08;;;14.00;;
48623;SDS011;34422;45.802;16.114;2023-09-18T05:53:02;21.80;;;16.00;;
48623;SDS011;34422;45.802;16.114;2023-09-18T05:55:32;29.23;;;14.93;;
48623;SDS011;34422;45.802;16.114;2023-09-18T05:58:03;21.67;;;13.65;;
48623;SDS011;34422;45.802;16.114;2023-09-18T06:00:31;21.27;;;13.80;;
48623;SDS011;34422;45.802;16.114;2023-09-18T06:02:58;15.68;;;11.70;;
48623;SDS011;34422;45.802;16.114;2023-09-18T06:05:25;14.18;;;11.75;;
48623;SDS011;34422;45.802;16.114;2023-09-18T06:07:52;15.65;;;12.68;;
48623;SDS011;34422;45.802;16.114;2023-09-18T06:10:19;13.18;;;11.52;;
48623;SDS011;34422;45.802;16.114;2023-09-18T06:12:46;42.83;;;12.35;;
48623;SDS011;34422;45.802;16.114;2023-09-18T06:15:14;10.98;;;9.75;;
48623;SDS011;34422;45.802;16.114;2023-09-18T06:17:58;14.63;;;10.40;;
48623;SDS011;34422;45.802;16.114;2023-09-18T06:20:30;12.65;;;10.00;;
48623;SDS011;34422;45.802;16.114;2023-09-18T06:22:57;11.45;;;9.43;;
48623;SDS011;34422;45.802;16.114;2023-09-18T06:25:28;11.65;;;9.07;;
48623;SDS011;34422;45.802;16.114;2023-09-18T06:27:58;12.30;;;8.98;;
48623;SDS011;34422;45.802;16.114;2023-09-18T06:30:32;20.50;;;9.80;;
48623;SDS011;34422;45.802;16.114;2023-09-18T06:33:00;12.07;;;8.90;;
48623;SDS011;34422;45.802;16.114;2023-09-18T06:35:32;23.50;;;10.82;;
48623;SDS011;34422;45.802;16.114;2023-09-18T06:38:02;14.52;;;10.77;;
48623;SDS011;34422;45.802;16.114;2023-09-18T06:40:46;15.70;;;11.07;;
48623;SDS011;34422;45.802;16.114;2023-09-18T06:43:18;14.65;;;10.38;;
48623;SDS011;34422;45.802;16.114;2023-09-18T06:45:47;13.73;;;10.23;;
48623;SDS011;34422;45.802;16.114;2023-09-18T06:48:16;12.00;;;9.80;;
48623;SDS011;34422;45.802;16.114;2023-09-18T06:50:43;14.82;;;11.52;;
48623;SDS011;34422;45.802;16.114;2023-09-18T06:53:10;16.65;;;10.48;;
48623;SDS011;34422;45.802;16.114;2023-09-18T06:55:46;19.33;;;11.00;;
48623;SDS011;34422;45.802;16.114;2023-09-18T06:58:29;21.05;;;11.60;;
48623;SDS011;34422;45.802;16.114;2023-09-18T07:01:00;18.27;;;11.30;;
48623;SDS011;34422;45.802;16.114;2023-09-18T07:03:27;20.55;;;10.95;;
48623;SDS011;34422;45.802;16.114;2023-09-18T07:05:54;14.20;;;10.18;;
48623;SDS011;34422;45.802;16.114;2023-09-18T07:10:54;13.40;;;9.35;;
48623;SDS011;34422;45.802;16.114;2023-09-18T07:13:21;13.52;;;10.05;;
48623;SDS011;34422;45.802;16.114;2023-09-18T07:15:48;15.30;;;10.68;;
48623;SDS011;34422;45.802;16.114;2023-09-18T07:18:18;17.92;;;14.18;;
48623;SDS011;34422;45.802;16.114;2023-09-18T07:20:49;13.30;;;9.55;;
48623;SDS011;34422;45.802;16.114;2023-09-18T07:23:21;17.33;;;9.48;;
48623;SDS011;34422;45.802;16.114;2023-09-18T07:25:54;11.88;;;8.15;;
48623;SDS011;34422;45.802;16.114;2023-09-18T07:28:28;13.20;;;9.50;;
48623;SDS011;34422;45.802;16.114;2023-09-18T07:31:03;12.68;;;8.45;;
48623;SDS011;34422;45.802;16.114;2023-09-18T07:33:35;15.05;;;11.05;;
48623;SDS011;34422;45.802;16.114;2023-09-18T07:36:02;16.23;;;10.90;;
48623;SDS011;34422;45.802;16.114;2023-09-18T07:38:30;14.05;;;10.45;;
48623;SDS011;34422;45.802;16.114;2023-09-18T07:40:59;9.65;;;7.55;;
48623;SDS011;34422;45.802;16.114;2023-09-18T07:43:32;12.38;;;8.65;;
48623;SDS011;34422;45.802;16.114;2023-09-18T07:45:59;10.60;;;7.82;;
48623;SDS011;34422;45.802;16.114;2023-09-18T07:48:42;10.88;;;7.88;;
48623;SDS011;34422;45.802;16.114;2023-09-18T07:51:12;13.52;;;7.53;;
48623;SDS011;34422;45.802;16.114;2023-09-18T07:53:44;11.13;;;7.72;;
48623;SDS011;34422;45.802;16.114;2023-09-18T07:56:12;9.73;;;7.57;;
48623;SDS011;34422;45.802;16.114;2023-09-18T07:58:39;13.13;;;8.30;;
48623;SDS011;34422;45.802;16.114;2023-09-18T08:01:06;10.35;;;8.40;;
48623;SDS011;34422;45.802;16.114;2023-09-18T08:03:38;14.13;;;9.00;;
48623;SDS011;34422;45.802;16.114;2023-09-18T08:06:19;13.50;;;9.00;;
48623;SDS011;34422;45.802;16.114;2023-09-18T08:08:49;13.90;;;9.65;;
48623;SDS011;34422;45.802;16.114;2023-09-18T08:11:19;18.83;;;9.15;;
48623;SDS011;34422;45.802;16.114;2023-09-18T08:13:46;13.18;;;9.77;;
48623;SDS011;34422;45.802;16.114;2023-09-18T08:16:16;15.55;;;10.70;;
48623;SDS011;34422;45.802;16.114;2023-09-18T08:18:48;13.82;;;9.05;;
48623;SDS011;34422;45.802;16.114;2023-09-18T08:21:19;13.90;;;9.57;;
48623;SDS011;34422;45.802;16.114;2023-09-18T08:23:46;14.93;;;9.93;;
48623;SDS011;34422;45.802;16.114;2023-09-18T08:26:18;16.15;;;8.63;;
48623;SDS011;34422;45.802;16.114;2023-09-18T08:28:54;14.68;;;9.07;;
48623;SDS011;34422;45.802;16.114;2023-09-18T08:31:35;13.00;;;8.85;;
48623;SDS011;34422;45.802;16.114;2023-09-18T08:34:08;14.65;;;8.57;;
48623;SDS011;34422;45.802;16.114;2023-09-18T08:36:38;11.55;;;8.43;;
48623;SDS011;34422;45.802;16.114;2023-09-18T08:39:10;13.45;;;8.77;;
48623;SDS011;34422;45.802;16.114;2023-09-18T08:41:45;12.15;;;8.20;;
48623;SDS011;34422;45.802;16.114;2023-09-18T08:44:21;11.93;;;7.63;;
48623;SDS011;34422;45.802;16.114;2023-09-18T08:46:57;11.30;;;7.75;;
48623;SDS011;34422;45.802;16.114;2023-09-18T08:49:28;10.20;;;7.93;;
48623;SDS011;34422;45.802;16.114;2023-09-18T08:52:05;11.18;;;7.35;;
48623;SDS011;34422;45.802;16.114;2023-09-18T08:54:36;11.82;;;7.60;;
48623;SDS011;34422;45.802;16.114;2023-09-18T08:57:03;12.80;;;7.50;;
48623;SDS011;34422;45.802;16.114;2023-09-18T08:59:39;8.98;;;6.88;;
48623;SDS011;34422;45.802;16.114;2023-09-18T09:02:12;11.93;;;7.95;;
48623;SDS011;34422;45.802;16.114;2023-09-18T09:04:40;9.98;;;6.88;;
48623;SDS011;34422;45.802;16.114;2023-09-18T09:07:10;9.77;;;7.95;;
48623;SDS011;34422;45.802;16.114;2023-09-18T09:09:54;13.88;;;9.05;;
48623;SDS011;34422;45.802;16.114;2023-09-18T09:15:46;11.50;;;8.98;;
48623;SDS011;34422;45.802;16.114;2023-09-18T09:18:14;12.82;;;7.85;;
48623;SDS011;34422;45.802;16.114;2023-09-18T09:21:20;12.15;;;8.80;;
48623;SDS011;34422;45.802;16.114;2023-09-18T09:23:47;16.10;;;12.02;;
48623;SDS011;34422;45.802;16.114;2023-09-18T09:26:33;12.90;;;8.68;;
48623;SDS011;34422;45.802;16.114;2023-09-18T09:29:20;12.15;;;8.02;;
48623;SDS011;34422;45.802;16.114;2023-09-18T09:31:50;13.77;;;8.02;;
48623;SDS011;34422;45.802;16.114;2023-09-18T09:34:24;12.80;;;10.35;;
48623;SDS011;34422;45.802;16.114;2023-09-18T09:36:55;15.55;;;9.90;;
48623;SDS011;34422;45.802;16.114;2023-09-18T09:39:33;15.18;;;10.48;;
48623;SDS011;34422;45.802;16.114;2023-09-18T09:42:01;18.05;;;10.70;;
48623;SDS011;34422;45.802;16.114;2023-09-18T09:44:32;16.10;;;11.27;;
48623;SDS011;34422;45.802;16.114;2023-09-18T09:47:02;16.83;;;11.35;;
48623;SDS011;34422;45.802;16.114;2023-09-18T09:49:46;13.20;;;9.85;;
48623;SDS011;34422;45.802;16.114;2023-09-18T09:54:55;14.07;;;9.65;;
48623;SDS011;34422;45.802;16.114;2023-09-18T09:57:26;14.30;;;11.15;;
48623;SDS011;34422;45.802;16.114;2023-09-18T10:00:03;18.25;;;11.93;;
48623;SDS011;34422;45.802;16.114;2023-09-18T10:02:55;21.65;;;13.98;;
48623;SDS011;34422;45.802;16.114;2023-09-18T10:05:36;16.00;;;10.93;;
48623;SDS011;34422;45.802;16.114;2023-09-18T10:08:24;19.52;;;11.32;;
48623;SDS011;34422;45.802;16.114;2023-09-18T10:11:09;18.40;;;11.68;;
48623;SDS011;34422;45.802;16.114;2023-09-18T10:13:52;13.77;;;9.68;;
48623;SDS011;34422;45.802;16.114;2023-09-18T10:16:30;13.40;;;8.70;;
48623;SDS011;34422;45.802;16.114;2023-09-18T10:22:18;16.23;;;10.93;;
48623;SDS011;34422;45.802;16.114;2023-09-18T10:25:02;14.63;;;8.95;;
48623;SDS011;34422;45.802;16.114;2023-09-18T10:27:47;12.48;;;9.05;;
48623;SDS011;34422;45.802;16.114;2023-09-18T10:30:34;11.50;;;7.32;;
48623;SDS011;34422;45.802;16.114;2023-09-18T10:33:04;9.02;;;6.15;;
48623;SDS011;34422;45.802;16.114;2023-09-18T10:35:40;12.88;;;6.32;;
48623;SDS011;34422;45.802;16.114;2023-09-18T10:38:22;9.88;;;5.75;;
48623;SDS011;34422;45.802;16.114;2023-09-18T10:40:54;14.55;;;6.00;;
48623;SDS011;34422;45.802;16.114;2023-09-18T10:43:25;8.00;;;6.10;;
48623;SDS011;34422;45.802;16.114;2023-09-18T10:45:58;12.57;;;6.50;;
48623;SDS011;34422;45.802;16.114;2023-09-18T10:48:46;9.27;;;5.38;;
48623;SDS011;34422;45.802;16.114;2023-09-18T10:51:13;18.25;;;6.78;;
48623;SDS011;34422;45.802;16.114;2023-09-18T10:53:47;13.13;;;8.25;;
48623;SDS011;34422;45.802;16.114;2023-09-18T10:56:21;12.27;;;7.38;;
48623;SDS011;34422;45.802;16.114;2023-09-18T10:58:59;13.02;;;6.05;;
48623;SDS011;34422;45.802;16.114;2023-09-18T11:01:37;9.88;;;5.53;;
48623;SDS011;34422;45.802;16.114;2023-09-18T11:04:17;11.40;;;6.05;;
48623;SDS011;34422;45.802;16.114;2023-09-18T11:09:22;11.98;;;6.05;;
48623;SDS011;34422;45.802;16.114;2023-09-18T11:12:06;10.98;;;6.32;;
48623;SDS011;34422;45.802;16.114;2023-09-18T11:14:48;11.13;;;5.88;;
48623;SDS011;34422;45.802;16.114;2023-09-18T11:20:46;13.65;;;6.82;;
48623;SDS011;34422;45.802;16.114;2023-09-18T11:25:29;14.65;;;7.03;;
48623;SDS011;34422;45.802;16.114;2023-09-18T11:28:06;10.88;;;5.93;;
48623;SDS011;34422;45.802;16.114;2023-09-18T11:30:56;12.20;;;5.82;;
48623;SDS011;34422;45.802;16.114;2023-09-18T11:33:37;9.57;;;5.22;;
48623;SDS011;34422;45.802;16.114;2023-09-18T11:36:07;12.30;;;7.28;;
48623;SDS011;34422;45.802;16.114;2023-09-18T11:38:52;12.50;;;7.50;;
48623;SDS011;34422;45.802;16.114;2023-09-18T11:41:24;10.57;;;4.97;;
48623;SDS011;34422;45.802;16.114;2023-09-18T11:46:57;10.63;;;5.57;;
48623;SDS011;34422;45.802;16.114;2023-09-18T11:49:32;9.43;;;5.03;;
48623;SDS011;34422;45.802;16.114;2023-09-18T11:52:11;9.65;;;5.70;;
48623;SDS011;34422;45.802;16.114;2023-09-18T11:54:48;9.82;;;5.18;;
48623;SDS011;34422;45.802;16.114;2023-09-18T11:57:23;13.27;;;5.70;;
48623;SDS011;34422;45.802;16.114;2023-09-18T11:59:54;10.82;;;5.25;;
48623;SDS011;34422;45.802;16.114;2023-09-18T12:02:26;10.82;;;5.88;;
48623;SDS011;34422;45.802;16.114;2023-09-18T12:05:15;13.38;;;5.72;;
48623;SDS011;34422;45.802;16.114;2023-09-18T12:07:44;12.88;;;5.68;;
48623;SDS011;34422;45.802;16.114;2023-09-18T12:10:16;10.02;;;6.07;;
48623;SDS011;34422;45.802;16.114;2023-09-18T12:12:56;12.20;;;6.13;;
48623;SDS011;34422;45.802;16.114;2023-09-18T12:15:30;11.23;;;5.15;;
48623;SDS011;34422;45.802;16.114;2023-09-18T12:18:04;11.18;;;5.40;;
48623;SDS011;34422;45.802;16.114;2023-09-18T12:20:45;12.80;;;5.95;;
48623;SDS011;34422;45.802;16.114;2023-09-18T12:23:15;10.25;;;5.97;;
48623;SDS011;34422;45.802;16.114;2023-09-18T12:25:50;13.32;;;6.55;;
48623;SDS011;34422;45.802;16.114;2023-09-18T12:28:23;13.60;;;5.85;;
48623;SDS011;34422;45.802;16.114;2023-09-18T12:31:01;13.15;;;5.75;;
48623;SDS011;34422;45.802;16.114;2023-09-18T12:33:35;13.85;;;6.07;;
48623;SDS011;34422;45.802;16.114;2023-09-18T12:36:03;10.90;;;6.28;;
48623;SDS011;34422;45.802;16.114;2023-09-18T12:38:34;11.52;;;5.70;;
48623;SDS011;34422;45.802;16.114;2023-09-18T12:41:03;12.00;;;6.05;;
48623;SDS011;34422;45.802;16.114;2023-09-18T12:43:39;10.23;;;5.95;;
48623;SDS011;34422;45.802;16.114;2023-09-18T12:46:16;13.70;;;6.13;;
48623;SDS011;34422;45.802;16.114;2023-09-18T12:51:28;13.93;;;5.90;;
48623;SDS011;34422;45.802;16.114;2023-09-18T12:54:01;14.63;;;5.80;;
48623;SDS011;34422;45.802;16.114;2023-09-18T12:56:48;12.57;;;5.53;;
48623;SDS011;34422;45.802;16.114;2023-09-18T12:59:15;15.68;;;5.45;;
48623;SDS011;34422;45.802;16.114;2023-09-18T13:01:48;9.45;;;5.20;;
48623;SDS011;34422;45.802;16.114;2023-09-18T13:04:17;12.80;;;5.63;;
48623;SDS011;34422;45.802;16.114;2023-09-18T13:06:44;9.15;;;5.80;;
48623;SDS011;34422;45.802;16.114;2023-09-18T13:09:24;13.50;;;5.07;;
48623;SDS011;34422;45.802;16.114;2023-09-18T13:11:58;8.85;;;4.75;;
48623;SDS011;34422;45.802;16.114;2023-09-18T13:14:30;9.70;;;5.20;;
48623;SDS011;34422;45.802;16.114;2023-09-18T13:17:02;13.55;;;5.53;;
48623;SDS011;34422;45.802;16.114;2023-09-18T13:19:49;11.93;;;5.85;;
48623;SDS011;34422;45.802;16.114;2023-09-18T13:22:25;12.55;;;6.38;;
48623;SDS011;34422;45.802;16.114;2023-09-18T13:24:57;13.25;;;5.38;;
48623;SDS011;34422;45.802;16.114;2023-09-18T13:27:25;15.13;;;5.28;;
48623;SDS011;34422;45.802;16.114;2023-09-18T13:29:52;13.50;;;4.85;;
48623;SDS011;34422;45.802;16.114;2023-09-18T13:32:23;10.43;;;5.15;;
48623;SDS011;34422;45.802;16.114;2023-09-18T13:34:57;9.80;;;5.53;;
48623;SDS011;34422;45.802;16.114;2023-09-18T13:37:25;10.82;;;5.65;;
48623;SDS011;34422;45.802;16.114;2023-09-18T13:39:55;17.08;;;5.55;;
48623;SDS011;34422;45.802;16.114;2023-09-18T13:42:22;12.50;;;5.25;;
48623;SDS011;34422;45.802;16.114;2023-09-18T13:44:49;9.43;;;4.97;;
48623;SDS011;34422;45.802;16.114;2023-09-18T13:50:15;9.70;;;4.57;;
48623;SDS011;34422;45.802;16.114;2023-09-18T13:52:45;16.08;;;5.15;;
48623;SDS011;34422;45.802;16.114;2023-09-18T13:55:37;14.05;;;5.70;;
48623;SDS011;34422;45.802;16.114;2023-09-18T13:58:20;17.17;;;8.25;;
48623;SDS011;34422;45.802;16.114;2023-09-18T14:01:03;13.85;;;6.97;;
48623;SDS011;34422;45.802;16.114;2023-09-18T14:03:33;16.33;;;6.15;;
48623;SDS011;34422;45.802;16.114;2023-09-18T14:06:02;12.95;;;5.72;;
48623;SDS011;34422;45.802;16.114;2023-09-18T14:08:31;13.75;;;7.13;;
48623;SDS011;34422;45.802;16.114;2023-09-18T14:10:58;17.67;;;8.45;;
48623;SDS011;34422;45.802;16.114;2023-09-18T14:13:25;19.75;;;9.30;;
48623;SDS011;34422;45.802;16.114;2023-09-18T14:15:55;17.88;;;9.95;;
48623;SDS011;34422;45.802;16.114;2023-09-18T14:18:24;25.42;;;17.23;;
48623;SDS011;34422;45.802;16.114;2023-09-18T14:20:51;26.15;;;17.10;;
48623;SDS011;34422;45.802;16.114;2023-09-18T14:23:18;24.85;;;14.45;;
48623;SDS011;34422;45.802;16.114;2023-09-18T14:25:47;21.90;;;14.63;;
48623;SDS011;34422;45.802;16.114;2023-09-18T14:28:14;24.23;;;14.15;;
48623;SDS011;34422;45.802;16.114;2023-09-18T14:30:41;27.80;;;16.65;;
48623;SDS011;34422;45.802;16.114;2023-09-18T14:33:08;27.15;;;11.95;;
48623;SDS011;34422;45.802;16.114;2023-09-18T14:35:35;15.30;;;7.70;;
48623;SDS011;34422;45.802;16.114;2023-09-18T14:38:03;14.43;;;7.30;;
48623;SDS011;34422;45.802;16.114;2023-09-18T14:40:33;17.23;;;7.93;;
48623;SDS011;34422;45.802;16.114;2023-09-18T14:43:14;17.52;;;7.85;;
48623;SDS011;34422;45.802;16.114;2023-09-18T14:45:41;19.77;;;9.32;;
48623;SDS011;34422;45.802;16.114;2023-09-18T14:48:08;17.65;;;11.18;;
48623;SDS011;34422;45.802;16.114;2023-09-18T14:51:13;17.25;;;10.15;;
48623;SDS011;34422;45.802;16.114;2023-09-18T14:53:38;21.58;;;11.48;;
48623;SDS011;34422;45.802;16.114;2023-09-18T14:56:22;24.45;;;14.23;;
48623;SDS011;34422;45.802;16.114;2023-09-18T14:58:49;26.10;;;15.73;;
48623;SDS011;34422;45.802;16.114;2023-09-18T15:01:18;27.03;;;14.17;;
48623;SDS011;34422;45.802;16.114;2023-09-18T15:03:47;24.85;;;15.48;;
48623;SDS011;34422;45.802;16.114;2023-09-18T15:06:15;28.52;;;14.30;;
48623;SDS011;34422;45.802;16.114;2023-09-18T15:08:42;22.52;;;12.13;;
48623;SDS011;34422;45.802;16.114;2023-09-18T15:11:09;17.92;;;10.00;;
48623;SDS011;34422;45.802;16.114;2023-09-18T15:13:37;13.15;;;7.97;;